Newport, Nebraska
Current Conditions -  °F | °C
As of 2:55 PM on Tuesday 25 Nov 2014 (Local Time) from KANW Reporting Station
Overcast Overcast  
Wind Chill: 36°   Ceiling: 4800
Heat Index: 42°   Visibility: 10mi
Dew Point: 18°   Wind: 12mph
Humidity: 37%   Direction: 230°SW
Pressure: 29.77"   Gusts: 17mph
Location:  42.6°N, 99.33°W
Report Text: KANW 252055Z AUTO 23010G15KT 10SM BKN048 OVC050 06/M08 A2977 RMK AO2 T00571080
Loading
Personal Weather Stations






























Interactive Weather Map New forecast layout! Learn more

10-Day Weather Forecast

Advertisements
Track Severe Weather on mobile